To NAV CANADA Home Page Login to a new session Search on AWWS site Feedback and Comments Disclaimer Vers la page française équivalente Tips FAQ What's new on the site To the Forecasts and Observations / NOTAM section To "File a Flight Plan" website Publications and other links Update of the User's profile FIC Telephone Numbers My Weather Data Folder Route Weather Data Regional Weather Data Local Weather Data To the Forecasts and Observations / NOTAM section
Request Generated 12/10/2016 at 16:31:17 UTC . Weather information available at that time is displayed.

METAR/TAF

LONDON/ON    

METAR CYXU 101600Z 26015G24KT 15SM VCSH BKN052TCU M04/M09 A3037 RMK
TCU5 SHSN N MOVG E SLP300=
METAR CYXU 101500Z 26012G20KT 15SM -SHSN OVC049 M05/M09 A3036 RMK SC8
TCU EMBD SLP297=
SPECI CYXU 101421Z 25012G21KT 15SM -SHSN BKN050 M05/M09 A3035 RMK SC7
TCU EMBD SLP295=
METAR CYXU 101400Z 26011G16KT 15SM BKN053 M05/M08 A3035 RMK SC7 TCU
TOPS DIST S SLP293=

TAF CYXU 101138Z 1012/1112 25010KT P6SM FEW015 BKN060 OVC110 TEMPO
1012/1016 5SM -SHSN BKN015 OVC050
FM101600 26012G22KT P6SM SCT030 BKN060 TEMPO 1016/1020 4SM -SHSN
OVC020
FM110900 20005KT 3SM -SN OVC025 PROB30 1109/1112 11/2SM -SN VV015
RMK NXT FCST BY 101800Z=
Your time UTC time
Weather data provided by Environment Canada and NAV CANADA